sensor_id;sensor_type;location;lat;lon;timestamp;P1;durP1;ratioP1;P2;durP2;ratioP2
41293;SDS011;27037;52.010;4.446;2023-04-24T00:02:20;9.50;;;4.10;;
41293;SDS011;27037;52.010;4.446;2023-04-24T00:04:47;10.35;;;4.00;;
41293;SDS011;27037;52.010;4.446;2023-04-24T00:07:14;9.68;;;3.95;;
41293;SDS011;27037;52.010;4.446;2023-04-24T00:09:42;8.23;;;3.95;;
41293;SDS011;27037;52.010;4.446;2023-04-24T00:12:08;10.40;;;4.43;;
41293;SDS011;27037;52.010;4.446;2023-04-24T00:14:34;10.57;;;5.38;;
41293;SDS011;27037;52.010;4.446;2023-04-24T00:17:00;9.75;;;5.00;;
41293;SDS011;27037;52.010;4.446;2023-04-24T00:19:27;12.23;;;5.00;;
41293;SDS011;27037;52.010;4.446;2023-04-24T00:21:53;11.05;;;4.50;;
41293;SDS011;27037;52.010;4.446;2023-04-24T00:24:20;6.75;;;3.92;;
41293;SDS011;27037;52.010;4.446;2023-04-24T00:26:45;6.30;;;3.65;;
41293;SDS011;27037;52.010;4.446;2023-04-24T00:29:11;8.63;;;3.28;;
41293;SDS011;27037;52.010;4.446;2023-04-24T00:31:37;8.48;;;4.30;;
41293;SDS011;27037;52.010;4.446;2023-04-24T00:34:03;11.60;;;4.32;;
41293;SDS011;27037;52.010;4.446;2023-04-24T00:36:29;6.05;;;3.70;;
41293;SDS011;27037;52.010;4.446;2023-04-24T00:38:56;7.30;;;3.40;;
41293;SDS011;27037;52.010;4.446;2023-04-24T00:41:22;8.48;;;3.65;;
41293;SDS011;27037;52.010;4.446;2023-04-24T00:43:49;6.13;;;3.53;;
41293;SDS011;27037;52.010;4.446;2023-04-24T00:46:15;7.38;;;3.78;;
41293;SDS011;27037;52.010;4.446;2023-04-24T00:48:41;8.00;;;3.78;;
41293;SDS011;27037;52.010;4.446;2023-04-24T00:51:08;6.20;;;3.63;;
41293;SDS011;27037;52.010;4.446;2023-04-24T00:56:09;6.13;;;3.33;;
41293;SDS011;27037;52.010;4.446;2023-04-24T00:58:34;7.70;;;3.60;;
41293;SDS011;27037;52.010;4.446;2023-04-24T01:01:00;7.40;;;3.50;;
41293;SDS011;27037;52.010;4.446;2023-04-24T01:03:28;5.28;;;2.55;;
41293;SDS011;27037;52.010;4.446;2023-04-24T01:05:58;5.20;;;2.83;;
41293;SDS011;27037;52.010;4.446;2023-04-24T01:08:24;3.58;;;2.53;;
41293;SDS011;27037;52.010;4.446;2023-04-24T01:10:52;5.95;;;2.38;;
41293;SDS011;27037;52.010;4.446;2023-04-24T01:13:21;3.88;;;2.40;;
41293;SDS011;27037;52.010;4.446;2023-04-24T01:15:46;3.63;;;2.28;;
41293;SDS011;27037;52.010;4.446;2023-04-24T01:18:13;4.05;;;2.10;;
41293;SDS011;27037;52.010;4.446;2023-04-24T01:20:39;6.55;;;2.05;;
41293;SDS011;27037;52.010;4.446;2023-04-24T01:23:07;4.60;;;2.13;;
41293;SDS011;27037;52.010;4.446;2023-04-24T01:25:33;6.35;;;2.20;;
41293;SDS011;27037;52.010;4.446;2023-04-24T01:27:59;3.83;;;2.38;;
41293;SDS011;27037;52.010;4.446;2023-04-24T01:30:26;4.57;;;2.42;;
41293;SDS011;27037;52.010;4.446;2023-04-24T01:32:52;4.32;;;2.13;;
41293;SDS011;27037;52.010;4.446;2023-04-24T01:35:18;5.68;;;2.60;;
41293;SDS011;27037;52.010;4.446;2023-04-24T01:37:44;4.00;;;2.60;;
41293;SDS011;27037;52.010;4.446;2023-04-24T01:40:10;7.25;;;3.33;;
41293;SDS011;27037;52.010;4.446;2023-04-24T01:42:36;5.22;;;3.10;;
41293;SDS011;27037;52.010;4.446;2023-04-24T01:45:02;4.10;;;2.92;;
41293;SDS011;27037;52.010;4.446;2023-04-24T01:47:30;6.47;;;3.47;;
41293;SDS011;27037;52.010;4.446;2023-04-24T01:49:57;5.20;;;3.83;;
41293;SDS011;27037;52.010;4.446;2023-04-24T01:52:23;6.55;;;4.07;;
41293;SDS011;27037;52.010;4.446;2023-04-24T01:54:48;6.38;;;3.92;;
41293;SDS011;27037;52.010;4.446;2023-04-24T01:57:14;10.23;;;4.53;;
41293;SDS011;27037;52.010;4.446;2023-04-24T01:59:41;6.30;;;4.40;;
41293;SDS011;27037;52.010;4.446;2023-04-24T02:02:07;7.35;;;3.90;;
41293;SDS011;27037;52.010;4.446;2023-04-24T02:04:32;7.47;;;4.10;;
41293;SDS011;27037;52.010;4.446;2023-04-24T02:06:58;5.38;;;3.75;;
41293;SDS011;27037;52.010;4.446;2023-04-24T02:09:24;6.57;;;3.03;;
41293;SDS011;27037;52.010;4.446;2023-04-24T02:11:50;5.85;;;3.33;;
41293;SDS011;27037;52.010;4.446;2023-04-24T02:14:15;5.38;;;3.22;;
41293;SDS011;27037;52.010;4.446;2023-04-24T02:16:41;10.57;;;3.72;;
41293;SDS011;27037;52.010;4.446;2023-04-24T02:19:07;4.65;;;3.20;;
41293;SDS011;27037;52.010;4.446;2023-04-24T02:21:33;4.90;;;2.60;;
41293;SDS011;27037;52.010;4.446;2023-04-24T02:23:58;6.80;;;2.80;;
41293;SDS011;27037;52.010;4.446;2023-04-24T02:26:24;4.25;;;2.50;;
41293;SDS011;27037;52.010;4.446;2023-04-24T02:28:50;6.15;;;2.88;;
41293;SDS011;27037;52.010;4.446;2023-04-24T02:31:16;5.75;;;2.72;;
41293;SDS011;27037;52.010;4.446;2023-04-24T02:33:41;4.47;;;2.50;;
41293;SDS011;27037;52.010;4.446;2023-04-24T02:36:07;3.97;;;2.10;;
41293;SDS011;27037;52.010;4.446;2023-04-24T02:38:33;6.75;;;2.28;;
41293;SDS011;27037;52.010;4.446;2023-04-24T02:40:58;3.72;;;1.60;;
41293;SDS011;27037;52.010;4.446;2023-04-24T02:43:25;3.47;;;1.50;;
41293;SDS011;27037;52.010;4.446;2023-04-24T02:45:51;1.98;;;1.00;;
41293;SDS011;27037;52.010;4.446;2023-04-24T02:48:16;5.78;;;1.10;;
41293;SDS011;27037;52.010;4.446;2023-04-24T02:50:42;4.70;;;1.35;;
41293;SDS011;27037;52.010;4.446;2023-04-24T02:53:08;4.55;;;1.50;;
41293;SDS011;27037;52.010;4.446;2023-04-24T02:55:33;2.08;;;1.17;;
41293;SDS011;27037;52.010;4.446;2023-04-24T02:57:59;5.53;;;1.42;;
41293;SDS011;27037;52.010;4.446;2023-04-24T03:00:25;3.85;;;1.20;;
41293;SDS011;27037;52.010;4.446;2023-04-24T03:02:50;5.43;;;1.40;;
41293;SDS011;27037;52.010;4.446;2023-04-24T03:05:16;3.90;;;1.20;;
41293;SDS011;27037;52.010;4.446;2023-04-24T03:07:41;4.50;;;1.25;;
41293;SDS011;27037;52.010;4.446;2023-04-24T03:10:07;7.03;;;1.20;;
41293;SDS011;27037;52.010;4.446;2023-04-24T03:12:33;5.63;;;1.50;;
41293;SDS011;27037;52.010;4.446;2023-04-24T03:14:59;4.95;;;1.52;;
41293;SDS011;27037;52.010;4.446;2023-04-24T03:17:24;5.63;;;1.80;;
41293;SDS011;27037;52.010;4.446;2023-04-24T03:19:50;4.95;;;1.83;;
41293;SDS011;27037;52.010;4.446;2023-04-24T03:22:16;3.47;;;1.77;;
41293;SDS011;27037;52.010;4.446;2023-04-24T03:24:41;5.95;;;1.90;;
41293;SDS011;27037;52.010;4.446;2023-04-24T03:27:07;6.25;;;1.50;;
41293;SDS011;27037;52.010;4.446;2023-04-24T03:29:32;4.35;;;1.48;;
41293;SDS011;27037;52.010;4.446;2023-04-24T03:31:58;3.50;;;1.02;;
41293;SDS011;27037;52.010;4.446;2023-04-24T03:34:24;4.00;;;1.05;;
41293;SDS011;27037;52.010;4.446;2023-04-24T03:36:49;4.13;;;1.25;;
41293;SDS011;27037;52.010;4.446;2023-04-24T03:39:15;3.50;;;1.45;;
41293;SDS011;27037;52.010;4.446;2023-04-24T03:41:41;3.63;;;1.45;;
41293;SDS011;27037;52.010;4.446;2023-04-24T03:44:06;5.85;;;1.20;;
41293;SDS011;27037;52.010;4.446;2023-04-24T03:46:32;4.95;;;1.30;;
41293;SDS011;27037;52.010;4.446;2023-04-24T03:48:58;5.97;;;1.23;;
41293;SDS011;27037;52.010;4.446;2023-04-24T03:51:23;4.70;;;1.60;;
41293;SDS011;27037;52.010;4.446;2023-04-24T03:53:49;4.72;;;1.20;;
41293;SDS011;27037;52.010;4.446;2023-04-24T03:56:14;2.70;;;1.38;;
41293;SDS011;27037;52.010;4.446;2023-04-24T03:58:40;5.25;;;1.73;;
41293;SDS011;27037;52.010;4.446;2023-04-24T04:01:06;3.92;;;1.40;;
41293;SDS011;27037;52.010;4.446;2023-04-24T04:03:32;3.55;;;1.50;;
41293;SDS011;27037;52.010;4.446;2023-04-24T04:05:58;4.85;;;1.30;;
41293;SDS011;27037;52.010;4.446;2023-04-24T04:08:23;4.40;;;1.45;;
41293;SDS011;27037;52.010;4.446;2023-04-24T04:10:49;4.28;;;1.60;;
41293;SDS011;27037;52.010;4.446;2023-04-24T04:13:15;7.13;;;1.63;;
41293;SDS011;27037;52.010;4.446;2023-04-24T04:15:40;5.20;;;1.40;;
41293;SDS011;27037;52.010;4.446;2023-04-24T04:18:06;2.90;;;1.27;;
41293;SDS011;27037;52.010;4.446;2023-04-24T04:20:31;2.53;;;1.30;;
41293;SDS011;27037;52.010;4.446;2023-04-24T04:22:57;3.22;;;1.40;;
41293;SDS011;27037;52.010;4.446;2023-04-24T04:25:23;6.55;;;1.60;;
41293;SDS011;27037;52.010;4.446;2023-04-24T04:27:48;7.82;;;3.00;;
41293;SDS011;27037;52.010;4.446;2023-04-24T04:30:16;6.85;;;2.92;;
41293;SDS011;27037;52.010;4.446;2023-04-24T04:32:41;9.18;;;3.40;;
41293;SDS011;27037;52.010;4.446;2023-04-24T04:35:07;10.88;;;3.55;;
41293;SDS011;27037;52.010;4.446;2023-04-24T04:37:32;11.25;;;3.63;;
41293;SDS011;27037;52.010;4.446;2023-04-24T04:39:59;11.18;;;4.30;;
41293;SDS011;27037;52.010;4.446;2023-04-24T04:42:28;10.95;;;3.63;;
41293;SDS011;27037;52.010;4.446;2023-04-24T04:44:53;10.70;;;3.63;;
41293;SDS011;27037;52.010;4.446;2023-04-24T04:47:21;8.65;;;3.33;;
41293;SDS011;27037;52.010;4.446;2023-04-24T04:49:50;10.30;;;4.32;;
41293;SDS011;27037;52.010;4.446;2023-04-24T04:52:18;13.60;;;5.80;;
41293;SDS011;27037;52.010;4.446;2023-04-24T04:54:44;18.27;;;6.72;;
41293;SDS011;27037;52.010;4.446;2023-04-24T04:57:11;19.02;;;8.27;;
41293;SDS011;27037;52.010;4.446;2023-04-24T04:59:37;25.63;;;11.23;;
41293;SDS011;27037;52.010;4.446;2023-04-24T05:02:03;27.70;;;12.07;;
41293;SDS011;27037;52.010;4.446;2023-04-24T05:04:28;29.73;;;12.90;;
41293;SDS011;27037;52.010;4.446;2023-04-24T05:06:55;33.55;;;13.98;;
41293;SDS011;27037;52.010;4.446;2023-04-24T05:09:21;31.70;;;14.40;;
41293;SDS011;27037;52.010;4.446;2023-04-24T05:11:46;30.92;;;13.05;;
41293;SDS011;27037;52.010;4.446;2023-04-24T05:14:12;29.52;;;12.70;;
41293;SDS011;27037;52.010;4.446;2023-04-24T05:16:38;26.48;;;12.20;;
41293;SDS011;27037;52.010;4.446;2023-04-24T05:19:04;32.20;;;11.00;;
41293;SDS011;27037;52.010;4.446;2023-04-24T05:21:30;27.77;;;11.23;;
41293;SDS011;27037;52.010;4.446;2023-04-24T05:23:56;29.13;;;11.60;;
41293;SDS011;27037;52.010;4.446;2023-04-24T05:26:22;33.33;;;11.75;;
41293;SDS011;27037;52.010;4.446;2023-04-24T05:28:48;31.15;;;12.82;;
41293;SDS011;27037;52.010;4.446;2023-04-24T05:31:13;26.83;;;12.05;;
41293;SDS011;27037;52.010;4.446;2023-04-24T05:33:39;27.65;;;12.85;;
41293;SDS011;27037;52.010;4.446;2023-04-24T05:36:05;28.50;;;12.40;;
41293;SDS011;27037;52.010;4.446;2023-04-24T05:38:31;30.25;;;12.75;;
41293;SDS011;27037;52.010;4.446;2023-04-24T05:40:57;29.45;;;12.20;;
41293;SDS011;27037;52.010;4.446;2023-04-24T05:43:22;29.02;;;12.90;;
41293;SDS011;27037;52.010;4.446;2023-04-24T05:45:48;34.15;;;12.90;;
41293;SDS011;27037;52.010;4.446;2023-04-24T05:48:14;34.42;;;12.52;;
41293;SDS011;27037;52.010;4.446;2023-04-24T05:50:40;30.38;;;12.32;;
41293;SDS011;27037;52.010;4.446;2023-04-24T05:53:05;29.33;;;12.52;;
41293;SDS011;27037;52.010;4.446;2023-04-24T05:55:32;27.77;;;11.30;;
41293;SDS011;27037;52.010;4.446;2023-04-24T05:57:58;31.42;;;11.90;;
41293;SDS011;27037;52.010;4.446;2023-04-24T06:00:24;30.75;;;11.65;;
41293;SDS011;27037;52.010;4.446;2023-04-24T06:02:50;33.42;;;9.95;;
41293;SDS011;27037;52.010;4.446;2023-04-24T06:05:17;26.20;;;9.82;;
41293;SDS011;27037;52.010;4.446;2023-04-24T06:07:43;33.45;;;9.88;;
41293;SDS011;27037;52.010;4.446;2023-04-24T06:10:09;31.45;;;8.77;;
41293;SDS011;27037;52.010;4.446;2023-04-24T06:12:35;33.33;;;8.68;;
41293;SDS011;27037;52.010;4.446;2023-04-24T06:15:01;33.40;;;8.02;;
41293;SDS011;27037;52.010;4.446;2023-04-24T06:17:27;27.27;;;7.68;;
41293;SDS011;27037;52.010;4.446;2023-04-24T06:19:53;30.17;;;8.10;;
41293;SDS011;27037;52.010;4.446;2023-04-24T06:22:18;35.58;;;7.82;;
41293;SDS011;27037;52.010;4.446;2023-04-24T06:24:44;34.13;;;8.07;;
41293;SDS011;27037;52.010;4.446;2023-04-24T06:27:10;31.63;;;7.45;;
41293;SDS011;27037;52.010;4.446;2023-04-24T06:29:35;26.95;;;6.18;;
41293;SDS011;27037;52.010;4.446;2023-04-24T06:32:02;25.88;;;6.40;;
41293;SDS011;27037;52.010;4.446;2023-04-24T06:34:27;28.00;;;6.65;;
41293;SDS011;27037;52.010;4.446;2023-04-24T06:36:53;24.35;;;6.20;;
41293;SDS011;27037;52.010;4.446;2023-04-24T06:39:19;22.77;;;6.28;;
41293;SDS011;27037;52.010;4.446;2023-04-24T06:41:45;24.52;;;6.38;;
41293;SDS011;27037;52.010;4.446;2023-04-24T06:44:11;28.23;;;7.30;;
41293;SDS011;27037;52.010;4.446;2023-04-24T06:46:36;29.40;;;6.50;;
41293;SDS011;27037;52.010;4.446;2023-04-24T06:49:02;29.23;;;6.55;;
41293;SDS011;27037;52.010;4.446;2023-04-24T06:51:27;27.48;;;5.75;;
41293;SDS011;27037;52.010;4.446;2023-04-24T06:53:53;27.33;;;5.70;;
41293;SDS011;27037;52.010;4.446;2023-04-24T06:56:21;28.75;;;5.38;;
41293;SDS011;27037;52.010;4.446;2023-04-24T06:58:47;18.48;;;3.90;;
41293;SDS011;27037;52.010;4.446;2023-04-24T07:01:13;25.63;;;5.10;;
41293;SDS011;27037;52.010;4.446;2023-04-24T07:03:39;28.98;;;5.25;;
41293;SDS011;27037;52.010;4.446;2023-04-24T07:06:05;26.35;;;4.25;;
41293;SDS011;27037;52.010;4.446;2023-04-24T07:08:30;24.17;;;4.75;;
41293;SDS011;27037;52.010;4.446;2023-04-24T07:10:58;25.42;;;4.85;;
41293;SDS011;27037;52.010;4.446;2023-04-24T07:13:24;20.10;;;4.40;;
41293;SDS011;27037;52.010;4.446;2023-04-24T07:15:51;28.17;;;4.78;;
41293;SDS011;27037;52.010;4.446;2023-04-24T07:18:19;29.98;;;4.30;;
41293;SDS011;27037;52.010;4.446;2023-04-24T07:20:45;31.60;;;4.90;;
41293;SDS011;27037;52.010;4.446;2023-04-24T07:23:11;26.35;;;4.07;;
41293;SDS011;27037;52.010;4.446;2023-04-24T07:25:37;22.15;;;4.20;;
41293;SDS011;27037;52.010;4.446;2023-04-24T07:28:03;24.90;;;4.25;;
41293;SDS011;27037;52.010;4.446;2023-04-24T07:30:29;25.95;;;4.32;;
41293;SDS011;27037;52.010;4.446;2023-04-24T07:32:57;19.45;;;3.72;;
41293;SDS011;27037;52.010;4.446;2023-04-24T07:35:23;18.08;;;4.05;;
41293;SDS011;27037;52.010;4.446;2023-04-24T07:37:51;28.52;;;3.95;;
41293;SDS011;27037;52.010;4.446;2023-04-24T07:40:17;21.52;;;3.58;;
41293;SDS011;27037;52.010;4.446;2023-04-24T07:42:43;20.88;;;3.72;;
41293;SDS011;27037;52.010;4.446;2023-04-24T07:45:09;17.48;;;3.85;;
41293;SDS011;27037;52.010;4.446;2023-04-24T07:47:35;30.25;;;4.43;;
41293;SDS011;27037;52.010;4.446;2023-04-24T07:50:02;19.35;;;3.47;;
41293;SDS011;27037;52.010;4.446;2023-04-24T07:52:28;24.08;;;4.35;;
41293;SDS011;27037;52.010;4.446;2023-04-24T07:54:54;26.33;;;4.13;;
41293;SDS011;27037;52.010;4.446;2023-04-24T07:57:23;16.73;;;3.53;;
41293;SDS011;27037;52.010;4.446;2023-04-24T07:59:52;19.10;;;3.40;;
41293;SDS011;27037;52.010;4.446;2023-04-24T08:02:17;17.58;;;3.70;;
41293;SDS011;27037;52.010;4.446;2023-04-24T08:04:43;14.45;;;3.60;;
41293;SDS011;27037;52.010;4.446;2023-04-24T08:07:08;21.83;;;3.67;;
41293;SDS011;27037;52.010;4.446;2023-04-24T08:09:34;15.35;;;3.42;;
41293;SDS011;27037;52.010;4.446;2023-04-24T08:11:59;19.65;;;3.75;;
41293;SDS011;27037;52.010;4.446;2023-04-24T08:14:26;17.52;;;3.10;;
41293;SDS011;27037;52.010;4.446;2023-04-24T08:16:53;24.75;;;3.92;;
41293;SDS011;27037;52.010;4.446;2023-04-24T08:19:20;15.02;;;2.97;;
41293;SDS011;27037;52.010;4.446;2023-04-24T08:21:46;13.63;;;3.10;;
41293;SDS011;27037;52.010;4.446;2023-04-24T08:24:12;7.80;;;2.50;;
41293;SDS011;27037;52.010;4.446;2023-04-24T08:26:37;11.05;;;2.88;;
41293;SDS011;27037;52.010;4.446;2023-04-24T08:29:04;10.27;;;2.70;;
41293;SDS011;27037;52.010;4.446;2023-04-24T08:31:29;14.52;;;2.63;;
41293;SDS011;27037;52.010;4.446;2023-04-24T08:33:55;11.23;;;2.72;;
41293;SDS011;27037;52.010;4.446;2023-04-24T08:36:21;18.73;;;2.50;;
41293;SDS011;27037;52.010;4.446;2023-04-24T08:38:46;12.23;;;2.83;;
41293;SDS011;27037;52.010;4.446;2023-04-24T08:41:12;14.68;;;2.30;;
41293;SDS011;27037;52.010;4.446;2023-04-24T08:43:40;10.48;;;2.33;;
41293;SDS011;27037;52.010;4.446;2023-04-24T08:46:07;7.85;;;2.17;;
41293;SDS011;27037;52.010;4.446;2023-04-24T08:48:33;8.32;;;2.17;;
41293;SDS011;27037;52.010;4.446;2023-04-24T08:50:59;7.50;;;1.70;;
41293;SDS011;27037;52.010;4.446;2023-04-24T08:53:26;12.50;;;2.15;;
41293;SDS011;27037;52.010;4.446;2023-04-24T08:55:52;9.80;;;2.17;;
41293;SDS011;27037;52.010;4.446;2023-04-24T08:58:20;10.40;;;2.17;;
41293;SDS011;27037;52.010;4.446;2023-04-24T09:00:47;10.02;;;1.60;;
41293;SDS011;27037;52.010;4.446;2023-04-24T09:03:16;8.07;;;1.85;;
41293;SDS011;27037;52.010;4.446;2023-04-24T09:05:42;8.10;;;1.67;;
41293;SDS011;27037;52.010;4.446;2023-04-24T09:08:12;5.88;;;1.75;;
41293;SDS011;27037;52.010;4.446;2023-04-24T09:10:40;12.55;;;2.05;;
41293;SDS011;27037;52.010;4.446;2023-04-24T09:13:06;11.10;;;1.88;;
41293;SDS011;27037;52.010;4.446;2023-04-24T09:15:36;9.23;;;1.75;;
41293;SDS011;27037;52.010;4.446;2023-04-24T09:18:03;11.48;;;1.90;;
41293;SDS011;27037;52.010;4.446;2023-04-24T09:20:29;8.38;;;1.90;;
41293;SDS011;27037;52.010;4.446;2023-04-24T09:22:59;7.30;;;1.60;;
41293;SDS011;27037;52.010;4.446;2023-04-24T09:25:34;9.27;;;1.60;;
41293;SDS011;27037;52.010;4.446;2023-04-24T09:28:03;5.53;;;1.25;;
41293;SDS011;27037;52.010;4.446;2023-04-24T09:30:31;5.40;;;1.20;;
41293;SDS011;27037;52.010;4.446;2023-04-24T09:33:10;10.35;;;1.50;;
41293;SDS011;27037;52.010;4.446;2023-04-24T09:35:40;8.93;;;1.35;;
41293;SDS011;27037;52.010;4.446;2023-04-24T09:38:07;9.82;;;1.77;;
41293;SDS011;27037;52.010;4.446;2023-04-24T09:40:33;9.13;;;1.50;;
41293;SDS011;27037;52.010;4.446;2023-04-24T09:43:01;10.43;;;1.40;;
41293;SDS011;27037;52.010;4.446;2023-04-24T09:45:28;12.55;;;2.13;;
41293;SDS011;27037;52.010;4.446;2023-04-24T09:48:01;6.88;;;1.23;;
41293;SDS011;27037;52.010;4.446;2023-04-24T09:50:27;6.82;;;1.40;;
41293;SDS011;27037;52.010;4.446;2023-04-24T09:52:57;10.05;;;1.88;;
41293;SDS011;27037;52.010;4.446;2023-04-24T09:55:26;9.07;;;1.40;;
41293;SDS011;27037;52.010;4.446;2023-04-24T09:57:54;9.30;;;1.40;;
41293;SDS011;27037;52.010;4.446;2023-04-24T10:00:27;13.73;;;1.75;;
41293;SDS011;27037;52.010;4.446;2023-04-24T10:03:03;7.60;;;1.30;;
41293;SDS011;27037;52.010;4.446;2023-04-24T10:08:04;11.88;;;2.00;;
41293;SDS011;27037;52.010;4.446;2023-04-24T10:10:32;7.82;;;2.15;;
41293;SDS011;27037;52.010;4.446;2023-04-24T10:12:59;9.07;;;1.15;;
41293;SDS011;27037;52.010;4.446;2023-04-24T10:15:26;10.75;;;1.70;;
41293;SDS011;27037;52.010;4.446;2023-04-24T10:17:52;9.40;;;1.50;;
41293;SDS011;27037;52.010;4.446;2023-04-24T10:20:22;12.13;;;1.83;;
41293;SDS011;27037;52.010;4.446;2023-04-24T10:22:50;8.82;;;1.60;;
41293;SDS011;27037;52.010;4.446;2023-04-24T10:25:21;9.63;;;1.50;;
41293;SDS011;27037;52.010;4.446;2023-04-24T10:27:49;7.25;;;1.60;;
41293;SDS011;27037;52.010;4.446;2023-04-24T10:30:17;12.02;;;1.63;;
41293;SDS011;27037;52.010;4.446;2023-04-24T10:32:44;12.68;;;1.48;;
41293;SDS011;27037;52.010;4.446;2023-04-24T10:35:10;15.98;;;2.03;;
41293;SDS011;27037;52.010;4.446;2023-04-24T10:37:45;8.05;;;1.73;;
41293;SDS011;27037;52.010;4.446;2023-04-24T10:40:17;12.32;;;1.83;;
41293;SDS011;27037;52.010;4.446;2023-04-24T10:42:48;11.23;;;1.48;;
41293;SDS011;27037;52.010;4.446;2023-04-24T10:45:20;11.90;;;1.73;;
41293;SDS011;27037;52.010;4.446;2023-04-24T10:50:27;10.68;;;1.45;;
41293;SDS011;27037;52.010;4.446;2023-04-24T10:52:55;9.65;;;1.40;;
41293;SDS011;27037;52.010;4.446;2023-04-24T10:55:57;7.75;;;1.63;;
41293;SDS011;27037;52.010;4.446;2023-04-24T10:58:22;6.18;;;1.40;;
41293;SDS011;27037;52.010;4.446;2023-04-24T11:00:55;7.38;;;1.48;;
41293;SDS011;27037;52.010;4.446;2023-04-24T11:03:28;5.75;;;1.15;;
41293;SDS011;27037;52.010;4.446;2023-04-24T11:06:00;4.35;;;0.90;;
41293;SDS011;27037;52.010;4.446;2023-04-24T11:08:31;5.17;;;0.70;;
41293;SDS011;27037;52.010;4.446;2023-04-24T11:11:11;2.23;;;0.70;;
41293;SDS011;27037;52.010;4.446;2023-04-24T11:18:51;8.75;;;1.20;;
41293;SDS011;27037;52.010;4.446;2023-04-24T11:21:21;5.65;;;1.17;;
41293;SDS011;27037;52.010;4.446;2023-04-24T11:23:47;7.93;;;1.52;;
41293;SDS011;27037;52.010;4.446;2023-04-24T11:26:17;9.35;;;1.92;;
41293;SDS011;27037;52.010;4.446;2023-04-24T11:28:46;8.00;;;1.20;;
41293;SDS011;27037;52.010;4.446;2023-04-24T11:34:09;6.53;;;1.00;;
41293;SDS011;27037;52.010;4.446;2023-04-24T11:36:35;9.18;;;1.73;;
41293;SDS011;27037;52.010;4.446;2023-04-24T11:39:01;15.00;;;1.95;;
41293;SDS011;27037;52.010;4.446;2023-04-24T11:41:27;9.73;;;1.55;;
41293;SDS011;27037;52.010;4.446;2023-04-24T11:43:53;9.75;;;2.00;;
41293;SDS011;27037;52.010;4.446;2023-04-24T11:46:20;12.45;;;1.98;;
41293;SDS011;27037;52.010;4.446;2023-04-24T11:48:46;8.65;;;1.63;;
41293;SDS011;27037;52.010;4.446;2023-04-24T11:51:13;13.23;;;1.90;;
41293;SDS011;27037;52.010;4.446;2023-04-24T11:53:38;10.88;;;2.35;;
41293;SDS011;27037;52.010;4.446;2023-04-24T11:56:04;11.18;;;1.80;;
41293;SDS011;27037;52.010;4.446;2023-04-24T11:58:37;11.23;;;2.05;;
41293;SDS011;27037;52.010;4.446;2023-04-24T12:01:04;11.40;;;1.95;;
41293;SDS011;27037;52.010;4.446;2023-04-24T12:03:29;12.98;;;2.35;;
41293;SDS011;27037;52.010;4.446;2023-04-24T12:06:08;11.13;;;2.30;;
41293;SDS011;27037;52.010;4.446;2023-04-24T12:08:35;12.77;;;2.00;;
41293;SDS011;27037;52.010;4.446;2023-04-24T12:11:01;12.77;;;2.25;;
41293;SDS011;27037;52.010;4.446;2023-04-24T12:13:29;11.15;;;2.45;;
41293;SDS011;27037;52.010;4.446;2023-04-24T12:15:56;10.90;;;2.38;;
41293;SDS011;27037;52.010;4.446;2023-04-24T12:18:22;12.27;;;2.30;;
41293;SDS011;27037;52.010;4.446;2023-04-24T12:20:48;8.55;;;2.35;;
41293;SDS011;27037;52.010;4.446;2023-04-24T12:23:15;16.83;;;3.05;;
41293;SDS011;27037;52.010;4.446;2023-04-24T12:25:41;14.70;;;3.00;;
41293;SDS011;27037;52.010;4.446;2023-04-24T12:30:40;17.15;;;3.30;;
41293;SDS011;27037;52.010;4.446;2023-04-24T12:33:09;18.33;;;3.13;;
41293;SDS011;27037;52.010;4.446;2023-04-24T12:35:35;20.55;;;3.60;;
41293;SDS011;27037;52.010;4.446;2023-04-24T12:38:07;14.88;;;2.92;;
41293;SDS011;27037;52.010;4.446;2023-04-24T12:40:34;16.10;;;3.00;;
41293;SDS011;27037;52.010;4.446;2023-04-24T12:43:00;17.77;;;3.63;;
41293;SDS011;27037;52.010;4.446;2023-04-24T12:45:26;16.02;;;3.65;;
41293;SDS011;27037;52.010;4.446;2023-04-24T12:47:53;23.42;;;3.67;;
41293;SDS011;27037;52.010;4.446;2023-04-24T12:50:18;22.30;;;3.45;;
41293;SDS011;27037;52.010;4.446;2023-04-24T12:52:44;25.63;;;3.42;;
41293;SDS011;27037;52.010;4.446;2023-04-24T12:55:10;22.05;;;3.60;;
41293;SDS011;27037;52.010;4.446;2023-04-24T12:57:38;18.05;;;3.80;;
41293;SDS011;27037;52.010;4.446;2023-04-24T13:00:05;12.45;;;2.42;;
41293;SDS011;27037;52.010;4.446;2023-04-24T13:02:32;16.35;;;3.35;;
41293;SDS011;27037;52.010;4.446;2023-04-24T13:04:59;22.20;;;4.28;;
41293;SDS011;27037;52.010;4.446;2023-04-24T13:07:26;18.70;;;3.13;;
41293;SDS011;27037;52.010;4.446;2023-04-24T13:09:52;12.95;;;2.78;;
41293;SDS011;27037;52.010;4.446;2023-04-24T13:12:19;15.00;;;3.50;;
41293;SDS011;27037;52.010;4.446;2023-04-24T13:14:45;17.35;;;3.45;;
41293;SDS011;27037;52.010;4.446;2023-04-24T13:17:11;19.10;;;3.65;;
41293;SDS011;27037;52.010;4.446;2023-04-24T13:19:38;16.08;;;3.38;;
41293;SDS011;27037;52.010;4.446;2023-04-24T13:22:05;18.13;;;3.25;;
41293;SDS011;27037;52.010;4.446;2023-04-24T13:24:32;15.95;;;3.33;;
41293;SDS011;27037;52.010;4.446;2023-04-24T13:26:58;22.63;;;3.38;;
41293;SDS011;27037;52.010;4.446;2023-04-24T13:29:23;12.70;;;3.38;;
41293;SDS011;27037;52.010;4.446;2023-04-24T13:31:50;12.80;;;3.17;;
41293;SDS011;27037;52.010;4.446;2023-04-24T13:34:16;12.00;;;3.30;;
41293;SDS011;27037;52.010;4.446;2023-04-24T13:36:43;18.00;;;3.15;;
41293;SDS011;27037;52.010;4.446;2023-04-24T13:39:08;13.10;;;3.10;;
41293;SDS011;27037;52.010;4.446;2023-04-24T13:41:36;15.43;;;3.08;;
41293;SDS011;27037;52.010;4.446;2023-04-24T13:44:02;15.20;;;3.03;;
41293;SDS011;27037;52.010;4.446;2023-04-24T13:46:29;13.65;;;2.90;;
41293;SDS011;27037;52.010;4.446;2023-04-24T13:48:55;13.02;;;3.10;;
41293;SDS011;27037;52.010;4.446;2023-04-24T13:51:23;11.98;;;3.00;;
41293;SDS011;27037;52.010;4.446;2023-04-24T13:53:52;15.27;;;3.35;;
41293;SDS011;27037;52.010;4.446;2023-04-24T13:56:17;9.55;;;3.00;;
41293;SDS011;27037;52.010;4.446;2023-04-24T13:58:43;12.10;;;3.13;;
41293;SDS011;27037;52.010;4.446;2023-04-24T14:01:09;20.52;;;3.47;;
41293;SDS011;27037;52.010;4.446;2023-04-24T14:03:35;17.77;;;3.83;;
41293;SDS011;27037;52.010;4.446;2023-04-24T14:06:02;18.05;;;4.00;;
41293;SDS011;27037;52.010;4.446;2023-04-24T14:08:28;13.55;;;3.92;;
41293;SDS011;27037;52.010;4.446;2023-04-24T14:10:53;21.60;;;4.70;;
41293;SDS011;27037;52.010;4.446;2023-04-24T14:13:19;18.55;;;4.05;;
41293;SDS011;27037;52.010;4.446;2023-04-24T14:15:45;20.42;;;4.38;;
41293;SDS011;27037;52.010;4.446;2023-04-24T14:18:11;20.42;;;4.20;;
41293;SDS011;27037;52.010;4.446;2023-04-24T14:20:37;18.92;;;3.63;;
41293;SDS011;27037;52.010;4.446;2023-04-24T14:23:03;18.13;;;3.72;;
41293;SDS011;27037;52.010;4.446;2023-04-24T14:25:29;20.13;;;4.22;;
41293;SDS011;27037;52.010;4.446;2023-04-24T14:27:55;19.30;;;3.88;;
41293;SDS011;27037;52.010;4.446;2023-04-24T14:30:20;20.48;;;3.80;;
41293;SDS011;27037;52.010;4.446;2023-04-24T14:32:46;17.38;;;4.28;;
41293;SDS011;27037;52.010;4.446;2023-04-24T14:35:12;19.42;;;4.63;;
41293;SDS011;27037;52.010;4.446;2023-04-24T14:37:38;22.17;;;4.55;;
41293;SDS011;27037;52.010;4.446;2023-04-24T14:40:06;19.25;;;4.90;;
41293;SDS011;27037;52.010;4.446;2023-04-24T14:42:32;24.77;;;4.70;;
41293;SDS011;27037;52.010;4.446;2023-04-24T14:44:58;21.92;;;4.88;;
41293;SDS011;27037;52.010;4.446;2023-04-24T14:47:24;24.15;;;4.80;;
41293;SDS011;27037;52.010;4.446;2023-04-24T14:49:50;17.90;;;4.75;;
41293;SDS011;27037;52.010;4.446;2023-04-24T14:52:16;20.70;;;4.47;;
41293;SDS011;27037;52.010;4.446;2023-04-24T14:54:42;16.58;;;3.83;;